sensor_id;sensor_type;location;lat;lon;timestamp;P1;durP1;ratioP1;P2;durP2;ratioP2
4921;SDS011;16625;53.624;10.106;2023-07-31T00:01:49;7.33;;;2.97;;
4921;SDS011;16625;53.624;10.106;2023-07-31T00:04:16;9.70;;;3.50;;
4921;SDS011;16625;53.624;10.106;2023-07-31T00:06:43;5.20;;;3.27;;
4921;SDS011;16625;53.624;10.106;2023-07-31T00:09:10;5.47;;;2.93;;
4921;SDS011;16625;53.624;10.106;2023-07-31T00:11:37;5.17;;;3.20;;
4921;SDS011;16625;53.624;10.106;2023-07-31T00:14:04;25.27;;;3.60;;
4921;SDS011;16625;53.624;10.106;2023-07-31T00:16:31;8.47;;;3.20;;
4921;SDS011;16625;53.624;10.106;2023-07-31T00:18:59;5.93;;;2.97;;
4921;SDS011;16625;53.624;10.106;2023-07-31T00:21:26;9.23;;;3.23;;
4921;SDS011;16625;53.624;10.106;2023-07-31T00:23:54;7.77;;;2.93;;
4921;SDS011;16625;53.624;10.106;2023-07-31T00:26:21;8.93;;;2.90;;
4921;SDS011;16625;53.624;10.106;2023-07-31T00:28:48;5.17;;;3.17;;
4921;SDS011;16625;53.624;10.106;2023-07-31T00:31:15;12.70;;;3.40;;
4921;SDS011;16625;53.624;10.106;2023-07-31T00:33:42;8.27;;;3.17;;
4921;SDS011;16625;53.624;10.106;2023-07-31T00:36:10;6.77;;;3.20;;
4921;SDS011;16625;53.624;10.106;2023-07-31T00:38:37;7.60;;;3.70;;
4921;SDS011;16625;53.624;10.106;2023-07-31T00:41:04;9.20;;;4.10;;
4921;SDS011;16625;53.624;10.106;2023-07-31T00:43:31;9.10;;;2.87;;
4921;SDS011;16625;53.624;10.106;2023-07-31T00:45:58;10.13;;;4.30;;
4921;SDS011;16625;53.624;10.106;2023-07-31T00:48:25;9.57;;;3.17;;
4921;SDS011;16625;53.624;10.106;2023-07-31T00:50:52;15.73;;;3.77;;
4921;SDS011;16625;53.624;10.106;2023-07-31T00:53:21;8.90;;;3.90;;
4921;SDS011;16625;53.624;10.106;2023-07-31T00:55:50;8.80;;;3.93;;
4921;SDS011;16625;53.624;10.106;2023-07-31T00:58:18;6.63;;;3.23;;
4921;SDS011;16625;53.624;10.106;2023-07-31T01:00:45;12.70;;;3.57;;
4921;SDS011;16625;53.624;10.106;2023-07-31T01:03:12;11.23;;;3.60;;
4921;SDS011;16625;53.624;10.106;2023-07-31T01:05:42;11.13;;;3.50;;
4921;SDS011;16625;53.624;10.106;2023-07-31T01:08:15;7.80;;;3.30;;
4921;SDS011;16625;53.624;10.106;2023-07-31T01:10:52;6.73;;;3.43;;
4921;SDS011;16625;53.624;10.106;2023-07-31T01:13:25;7.40;;;3.73;;
4921;SDS011;16625;53.624;10.106;2023-07-31T01:15:53;10.60;;;3.50;;
4921;SDS011;16625;53.624;10.106;2023-07-31T01:18:19;6.50;;;2.87;;
4921;SDS011;16625;53.624;10.106;2023-07-31T01:20:47;10.93;;;3.93;;
4921;SDS011;16625;53.624;10.106;2023-07-31T01:23:32;16.00;;;3.87;;
4921;SDS011;16625;53.624;10.106;2023-07-31T01:26:12;9.00;;;4.07;;
4921;SDS011;16625;53.624;10.106;2023-07-31T01:28:46;5.77;;;3.40;;
4921;SDS011;16625;53.624;10.106;2023-07-31T01:31:22;9.70;;;4.60;;
4921;SDS011;16625;53.624;10.106;2023-07-31T01:33:50;20.13;;;4.77;;
4921;SDS011;16625;53.624;10.106;2023-07-31T01:36:20;8.77;;;3.60;;
4921;SDS011;16625;53.624;10.106;2023-07-31T01:38:47;17.07;;;4.10;;
4921;SDS011;16625;53.624;10.106;2023-07-31T01:41:17;10.50;;;3.43;;
4921;SDS011;16625;53.624;10.106;2023-07-31T01:43:45;11.67;;;4.10;;
4921;SDS011;16625;53.624;10.106;2023-07-31T01:46:12;7.40;;;3.47;;
4921;SDS011;16625;53.624;10.106;2023-07-31T01:48:39;10.37;;;3.37;;
4921;SDS011;16625;53.624;10.106;2023-07-31T01:51:05;12.53;;;4.00;;
4921;SDS011;16625;53.624;10.106;2023-07-31T01:53:32;12.50;;;3.83;;
4921;SDS011;16625;53.624;10.106;2023-07-31T01:55:59;9.57;;;3.40;;
4921;SDS011;16625;53.624;10.106;2023-07-31T01:58:28;12.83;;;4.00;;
4921;SDS011;16625;53.624;10.106;2023-07-31T02:00:55;5.27;;;3.73;;
4921;SDS011;16625;53.624;10.106;2023-07-31T02:03:22;8.20;;;4.30;;
4921;SDS011;16625;53.624;10.106;2023-07-31T02:05:49;10.17;;;4.10;;
4921;SDS011;16625;53.624;10.106;2023-07-31T02:08:16;8.43;;;4.50;;
4921;SDS011;16625;53.624;10.106;2023-07-31T02:10:43;13.50;;;4.60;;
4921;SDS011;16625;53.624;10.106;2023-07-31T02:13:10;12.30;;;5.23;;
4921;SDS011;16625;53.624;10.106;2023-07-31T02:15:38;9.53;;;4.43;;
4921;SDS011;16625;53.624;10.106;2023-07-31T02:18:05;5.70;;;4.67;;
4921;SDS011;16625;53.624;10.106;2023-07-31T02:20:33;7.60;;;4.27;;
4921;SDS011;16625;53.624;10.106;2023-07-31T02:23:01;20.10;;;5.60;;
4921;SDS011;16625;53.624;10.106;2023-07-31T02:25:28;10.17;;;4.67;;
4921;SDS011;16625;53.624;10.106;2023-07-31T02:27:55;6.57;;;4.53;;
4921;SDS011;16625;53.624;10.106;2023-07-31T02:30:22;12.57;;;4.47;;
4921;SDS011;16625;53.624;10.106;2023-07-31T02:32:50;10.63;;;4.23;;
4921;SDS011;16625;53.624;10.106;2023-07-31T02:35:17;12.97;;;4.57;;
4921;SDS011;16625;53.624;10.106;2023-07-31T02:37:44;18.53;;;4.57;;
4921;SDS011;16625;53.624;10.106;2023-07-31T02:40:11;8.10;;;4.33;;
4921;SDS011;16625;53.624;10.106;2023-07-31T02:42:39;9.73;;;4.57;;
4921;SDS011;16625;53.624;10.106;2023-07-31T02:45:06;8.30;;;5.40;;
4921;SDS011;16625;53.624;10.106;2023-07-31T02:47:42;13.77;;;3.47;;
4921;SDS011;16625;53.624;10.106;2023-07-31T02:50:10;10.10;;;5.13;;
4921;SDS011;16625;53.624;10.106;2023-07-31T02:52:37;8.07;;;3.83;;
4921;SDS011;16625;53.624;10.106;2023-07-31T02:55:05;8.40;;;4.10;;
4921;SDS011;16625;53.624;10.106;2023-07-31T02:57:35;10.27;;;4.37;;
4921;SDS011;16625;53.624;10.106;2023-07-31T03:00:02;8.27;;;4.37;;
4921;SDS011;16625;53.624;10.106;2023-07-31T03:02:31;6.90;;;4.43;;
4921;SDS011;16625;53.624;10.106;2023-07-31T03:04:58;10.40;;;4.03;;
4921;SDS011;16625;53.624;10.106;2023-07-31T03:07:27;8.80;;;4.30;;
4921;SDS011;16625;53.624;10.106;2023-07-31T03:09:55;12.43;;;4.30;;
4921;SDS011;16625;53.624;10.106;2023-07-31T03:12:23;19.93;;;4.67;;
4921;SDS011;16625;53.624;10.106;2023-07-31T03:14:50;8.53;;;4.10;;
4921;SDS011;16625;53.624;10.106;2023-07-31T03:17:17;10.50;;;3.70;;
4921;SDS011;16625;53.624;10.106;2023-07-31T03:19:44;10.23;;;4.50;;
4921;SDS011;16625;53.624;10.106;2023-07-31T03:22:11;6.50;;;3.90;;
4921;SDS011;16625;53.624;10.106;2023-07-31T03:24:40;12.83;;;3.17;;
4921;SDS011;16625;53.624;10.106;2023-07-31T03:27:07;7.27;;;3.63;;
4921;SDS011;16625;53.624;10.106;2023-07-31T03:29:34;9.23;;;4.07;;
4921;SDS011;16625;53.624;10.106;2023-07-31T03:32:01;6.13;;;3.60;;
4921;SDS011;16625;53.624;10.106;2023-07-31T03:34:28;7.23;;;4.80;;
4921;SDS011;16625;53.624;10.106;2023-07-31T03:36:57;7.67;;;4.10;;
4921;SDS011;16625;53.624;10.106;2023-07-31T03:39:24;9.00;;;4.60;;
4921;SDS011;16625;53.624;10.106;2023-07-31T03:41:52;7.77;;;3.50;;
4921;SDS011;16625;53.624;10.106;2023-07-31T03:44:19;6.13;;;3.33;;
4921;SDS011;16625;53.624;10.106;2023-07-31T03:46:46;7.33;;;4.00;;
4921;SDS011;16625;53.624;10.106;2023-07-31T03:49:13;9.00;;;3.60;;
4921;SDS011;16625;53.624;10.106;2023-07-31T03:51:40;11.00;;;3.80;;
4921;SDS011;16625;53.624;10.106;2023-07-31T03:54:07;12.23;;;3.60;;
4921;SDS011;16625;53.624;10.106;2023-07-31T03:56:34;9.30;;;4.00;;
4921;SDS011;16625;53.624;10.106;2023-07-31T03:59:04;12.23;;;3.80;;
4921;SDS011;16625;53.624;10.106;2023-07-31T04:01:31;7.40;;;4.27;;
4921;SDS011;16625;53.624;10.106;2023-07-31T04:03:58;5.87;;;3.60;;
4921;SDS011;16625;53.624;10.106;2023-07-31T04:06:25;4.70;;;3.97;;
4921;SDS011;16625;53.624;10.106;2023-07-31T04:08:52;7.67;;;4.33;;
4921;SDS011;16625;53.624;10.106;2023-07-31T04:11:23;6.63;;;3.50;;
4921;SDS011;16625;53.624;10.106;2023-07-31T04:13:50;6.00;;;4.40;;
4921;SDS011;16625;53.624;10.106;2023-07-31T04:16:18;5.53;;;3.40;;
4921;SDS011;16625;53.624;10.106;2023-07-31T04:18:45;6.37;;;4.30;;
4921;SDS011;16625;53.624;10.106;2023-07-31T04:21:12;6.33;;;3.60;;
4921;SDS011;16625;53.624;10.106;2023-07-31T04:23:39;7.10;;;3.77;;
4921;SDS011;16625;53.624;10.106;2023-07-31T04:26:06;7.53;;;4.17;;
4921;SDS011;16625;53.624;10.106;2023-07-31T04:28:33;5.03;;;4.17;;
4921;SDS011;16625;53.624;10.106;2023-07-31T04:31:00;4.20;;;3.70;;
4921;SDS011;16625;53.624;10.106;2023-07-31T04:33:29;4.10;;;3.70;;
4921;SDS011;16625;53.624;10.106;2023-07-31T04:35:56;5.63;;;4.90;;
4921;SDS011;16625;53.624;10.106;2023-07-31T04:38:23;7.70;;;4.60;;
4921;SDS011;16625;53.624;10.106;2023-07-31T04:40:50;6.27;;;4.13;;
4921;SDS011;16625;53.624;10.106;2023-07-31T04:43:17;6.17;;;4.00;;
4921;SDS011;16625;53.624;10.106;2023-07-31T04:45:45;4.80;;;3.90;;
4921;SDS011;16625;53.624;10.106;2023-07-31T04:48:13;4.70;;;3.60;;
4921;SDS011;16625;53.624;10.106;2023-07-31T04:50:41;5.00;;;3.57;;
4921;SDS011;16625;53.624;10.106;2023-07-31T04:53:09;6.33;;;3.43;;
4921;SDS011;16625;53.624;10.106;2023-07-31T04:55:36;4.47;;;3.20;;
4921;SDS011;16625;53.624;10.106;2023-07-31T04:58:03;3.77;;;3.30;;
4921;SDS011;16625;53.624;10.106;2023-07-31T05:00:30;6.00;;;4.00;;
4921;SDS011;16625;53.624;10.106;2023-07-31T05:02:57;4.23;;;3.20;;
4921;SDS011;16625;53.624;10.106;2023-07-31T05:05:24;7.57;;;3.50;;
4921;SDS011;16625;53.624;10.106;2023-07-31T05:07:52;3.73;;;3.10;;
4921;SDS011;16625;53.624;10.106;2023-07-31T05:10:19;3.80;;;3.23;;
4921;SDS011;16625;53.624;10.106;2023-07-31T05:12:46;3.43;;;2.77;;
4921;SDS011;16625;53.624;10.106;2023-07-31T05:15:13;4.33;;;3.13;;
4921;SDS011;16625;53.624;10.106;2023-07-31T05:17:40;3.50;;;3.20;;
4921;SDS011;16625;53.624;10.106;2023-07-31T05:20:09;3.83;;;3.13;;
4921;SDS011;16625;53.624;10.106;2023-07-31T05:22:36;3.90;;;3.03;;
4921;SDS011;16625;53.624;10.106;2023-07-31T05:25:05;5.07;;;4.00;;
4921;SDS011;16625;53.624;10.106;2023-07-31T05:27:32;4.80;;;3.80;;
4921;SDS011;16625;53.624;10.106;2023-07-31T05:29:59;4.30;;;3.30;;
4921;SDS011;16625;53.624;10.106;2023-07-31T05:32:27;5.80;;;3.00;;
4921;SDS011;16625;53.624;10.106;2023-07-31T05:34:54;5.13;;;3.90;;
4921;SDS011;16625;53.624;10.106;2023-07-31T05:37:21;3.40;;;3.10;;
4921;SDS011;16625;53.624;10.106;2023-07-31T05:39:48;6.40;;;3.90;;
4921;SDS011;16625;53.624;10.106;2023-07-31T05:42:17;8.33;;;3.03;;
4921;SDS011;16625;53.624;10.106;2023-07-31T05:44:44;3.60;;;3.30;;
4921;SDS011;16625;53.624;10.106;2023-07-31T05:47:12;3.90;;;3.50;;
4921;SDS011;16625;53.624;10.106;2023-07-31T05:49:39;3.77;;;3.37;;
4921;SDS011;16625;53.624;10.106;2023-07-31T05:52:06;4.03;;;3.63;;
4921;SDS011;16625;53.624;10.106;2023-07-31T05:54:33;4.43;;;3.87;;
4921;SDS011;16625;53.624;10.106;2023-07-31T05:57:00;4.30;;;3.90;;
4921;SDS011;16625;53.624;10.106;2023-07-31T05:59:29;5.00;;;4.50;;
4921;SDS011;16625;53.624;10.106;2023-07-31T06:01:58;4.30;;;3.90;;
4921;SDS011;16625;53.624;10.106;2023-07-31T06:04:25;4.90;;;4.40;;
4921;SDS011;16625;53.624;10.106;2023-07-31T06:06:52;5.73;;;3.77;;
4921;SDS011;16625;53.624;10.106;2023-07-31T06:09:19;5.17;;;4.67;;
4921;SDS011;16625;53.624;10.106;2023-07-31T06:11:46;4.37;;;3.90;;
4921;SDS011;16625;53.624;10.106;2023-07-31T06:14:13;4.73;;;4.23;;
4921;SDS011;16625;53.624;10.106;2023-07-31T06:16:42;4.00;;;3.10;;
4921;SDS011;16625;53.624;10.106;2023-07-31T06:19:09;3.80;;;3.30;;
4921;SDS011;16625;53.624;10.106;2023-07-31T06:21:36;4.67;;;3.00;;
4921;SDS011;16625;53.624;10.106;2023-07-31T06:24:04;3.30;;;3.00;;
4921;SDS011;16625;53.624;10.106;2023-07-31T06:26:31;11.90;;;3.30;;
4921;SDS011;16625;53.624;10.106;2023-07-31T06:28:58;3.73;;;2.93;;
4921;SDS011;16625;53.624;10.106;2023-07-31T06:31:25;4.20;;;2.80;;
4921;SDS011;16625;53.624;10.106;2023-07-31T06:33:54;3.40;;;2.87;;
4921;SDS011;16625;53.624;10.106;2023-07-31T06:36:21;3.27;;;2.80;;
4921;SDS011;16625;53.624;10.106;2023-07-31T06:38:48;2.87;;;2.50;;
4921;SDS011;16625;53.624;10.106;2023-07-31T06:41:15;4.80;;;4.30;;
4921;SDS011;16625;53.624;10.106;2023-07-31T06:43:42;6.90;;;3.10;;
4921;SDS011;16625;53.624;10.106;2023-07-31T06:46:12;6.43;;;3.20;;
4921;SDS011;16625;53.624;10.106;2023-07-31T06:48:39;3.20;;;2.80;;
4921;SDS011;16625;53.624;10.106;2023-07-31T06:51:07;4.60;;;3.17;;
4921;SDS011;16625;53.624;10.106;2023-07-31T06:53:34;3.20;;;2.73;;
4921;SDS011;16625;53.624;10.106;2023-07-31T06:56:01;5.10;;;3.47;;
4921;SDS011;16625;53.624;10.106;2023-07-31T06:58:29;4.57;;;3.00;;
4921;SDS011;16625;53.624;10.106;2023-07-31T07:00:56;6.13;;;3.07;;
4921;SDS011;16625;53.624;10.106;2023-07-31T07:03:23;5.03;;;2.90;;
4921;SDS011;16625;53.624;10.106;2023-07-31T07:05:50;3.73;;;3.30;;
4921;SDS011;16625;53.624;10.106;2023-07-31T07:08:18;3.37;;;3.07;;
4921;SDS011;16625;53.624;10.106;2023-07-31T07:10:46;3.63;;;3.17;;
4921;SDS011;16625;53.624;10.106;2023-07-31T07:13:13;3.07;;;2.67;;
4921;SDS011;16625;53.624;10.106;2023-07-31T07:15:42;7.37;;;4.33;;
4921;SDS011;16625;53.624;10.106;2023-07-31T07:18:09;4.00;;;3.60;;
4921;SDS011;16625;53.624;10.106;2023-07-31T07:20:37;4.30;;;3.50;;
4921;SDS011;16625;53.624;10.106;2023-07-31T07:23:06;6.60;;;3.57;;
4921;SDS011;16625;53.624;10.106;2023-07-31T07:25:38;5.20;;;2.83;;
4921;SDS011;16625;53.624;10.106;2023-07-31T07:28:05;3.73;;;3.37;;
4921;SDS011;16625;53.624;10.106;2023-07-31T07:30:32;3.80;;;3.50;;
4921;SDS011;16625;53.624;10.106;2023-07-31T07:33:00;3.53;;;3.20;;
4921;SDS011;16625;53.624;10.106;2023-07-31T07:35:27;4.00;;;3.60;;
4921;SDS011;16625;53.624;10.106;2023-07-31T07:37:54;3.53;;;3.13;;
4921;SDS011;16625;53.624;10.106;2023-07-31T07:40:21;3.40;;;3.10;;
4921;SDS011;16625;53.624;10.106;2023-07-31T07:42:53;5.50;;;3.40;;
4921;SDS011;16625;53.624;10.106;2023-07-31T07:45:20;3.73;;;3.07;;
4921;SDS011;16625;53.624;10.106;2023-07-31T07:47:47;4.10;;;3.30;;
4921;SDS011;16625;53.624;10.106;2023-07-31T07:50:15;3.47;;;3.17;;
4921;SDS011;16625;53.624;10.106;2023-07-31T07:52:42;5.07;;;2.90;;
4921;SDS011;16625;53.624;10.106;2023-07-31T07:55:09;3.43;;;2.73;;
4921;SDS011;16625;53.624;10.106;2023-07-31T07:57:36;5.10;;;3.07;;
4921;SDS011;16625;53.624;10.106;2023-07-31T08:00:05;3.70;;;3.00;;
4921;SDS011;16625;53.624;10.106;2023-07-31T08:02:35;4.13;;;3.73;;
4921;SDS011;16625;53.624;10.106;2023-07-31T08:05:02;6.73;;;4.00;;
4921;SDS011;16625;53.624;10.106;2023-07-31T08:07:29;4.50;;;3.90;;
4921;SDS011;16625;53.624;10.106;2023-07-31T08:09:56;3.13;;;2.50;;
4921;SDS011;16625;53.624;10.106;2023-07-31T08:12:24;3.73;;;3.20;;
4921;SDS011;16625;53.624;10.106;2023-07-31T08:14:51;4.50;;;3.23;;
4921;SDS011;16625;53.624;10.106;2023-07-31T08:17:19;2.87;;;2.20;;
4921;SDS011;16625;53.624;10.106;2023-07-31T08:19:46;4.27;;;2.70;;
4921;SDS011;16625;53.624;10.106;2023-07-31T08:22:13;4.77;;;2.93;;
4921;SDS011;16625;53.624;10.106;2023-07-31T08:24:40;3.80;;;3.33;;
4921;SDS011;16625;53.624;10.106;2023-07-31T08:27:07;2.93;;;2.67;;
4921;SDS011;16625;53.624;10.106;2023-07-31T08:29:34;5.43;;;3.67;;
4921;SDS011;16625;53.624;10.106;2023-07-31T08:32:01;4.93;;;3.83;;
4921;SDS011;16625;53.624;10.106;2023-07-31T08:34:30;3.03;;;2.83;;
4921;SDS011;16625;53.624;10.106;2023-07-31T08:36:57;3.53;;;3.23;;
4921;SDS011;16625;53.624;10.106;2023-07-31T08:39:24;3.10;;;2.80;;
4921;SDS011;16625;53.624;10.106;2023-07-31T08:41:51;5.03;;;3.10;;
4921;SDS011;16625;53.624;10.106;2023-07-31T08:44:23;4.17;;;3.23;;
4921;SDS011;16625;53.624;10.106;2023-07-31T08:46:50;9.77;;;2.90;;
4921;SDS011;16625;53.624;10.106;2023-07-31T08:49:18;3.57;;;2.70;;
4921;SDS011;16625;53.624;10.106;2023-07-31T08:51:48;2.87;;;2.53;;
4921;SDS011;16625;53.624;10.106;2023-07-31T08:54:16;3.83;;;2.60;;
4921;SDS011;16625;53.624;10.106;2023-07-31T08:56:43;2.83;;;2.50;;
4921;SDS011;16625;53.624;10.106;2023-07-31T08:59:11;9.13;;;2.87;;
4921;SDS011;16625;53.624;10.106;2023-07-31T09:01:43;5.87;;;2.60;;
4921;SDS011;16625;53.624;10.106;2023-07-31T09:04:21;4.60;;;2.70;;
4921;SDS011;16625;53.624;10.106;2023-07-31T09:06:51;3.47;;;2.30;;
4921;SDS011;16625;53.624;10.106;2023-07-31T09:09:25;2.77;;;2.13;;
4921;SDS011;16625;53.624;10.106;2023-07-31T09:11:53;3.50;;;2.20;;
4921;SDS011;16625;53.624;10.106;2023-07-31T09:14:21;2.80;;;2.33;;
4921;SDS011;16625;53.624;10.106;2023-07-31T09:16:52;2.20;;;2.00;;
4921;SDS011;16625;53.624;10.106;2023-07-31T09:19:26;3.00;;;2.17;;
4921;SDS011;16625;53.624;10.106;2023-07-31T09:21:55;2.60;;;2.27;;
4921;SDS011;16625;53.624;10.106;2023-07-31T09:24:25;2.43;;;1.77;;
4921;SDS011;16625;53.624;10.106;2023-07-31T09:26:53;2.63;;;2.10;;
4921;SDS011;16625;53.624;10.106;2023-07-31T09:29:21;4.20;;;2.60;;
4921;SDS011;16625;53.624;10.106;2023-07-31T09:31:48;4.50;;;2.40;;
4921;SDS011;16625;53.624;10.106;2023-07-31T09:34:15;2.00;;;1.70;;
4921;SDS011;16625;53.624;10.106;2023-07-31T09:36:42;2.30;;;1.87;;
4921;SDS011;16625;53.624;10.106;2023-07-31T09:39:11;6.33;;;1.97;;
4921;SDS011;16625;53.624;10.106;2023-07-31T09:41:39;2.43;;;2.10;;
4921;SDS011;16625;53.624;10.106;2023-07-31T09:44:08;2.57;;;2.37;;
4921;SDS011;16625;53.624;10.106;2023-07-31T09:46:36;5.93;;;2.00;;
4921;SDS011;16625;53.624;10.106;2023-07-31T09:49:07;2.13;;;1.73;;
4921;SDS011;16625;53.624;10.106;2023-07-31T09:51:35;2.60;;;1.97;;
4921;SDS011;16625;53.624;10.106;2023-07-31T09:54:08;3.83;;;2.00;;
4921;SDS011;16625;53.624;10.106;2023-07-31T09:56:41;1.90;;;1.70;;
4921;SDS011;16625;53.624;10.106;2023-07-31T09:59:11;3.80;;;1.80;;
4921;SDS011;16625;53.624;10.106;2023-07-31T10:01:38;3.23;;;2.17;;
4921;SDS011;16625;53.624;10.106;2023-07-31T10:04:07;2.90;;;1.50;;
4921;SDS011;16625;53.624;10.106;2023-07-31T10:06:35;2.83;;;1.83;;
4921;SDS011;16625;53.624;10.106;2023-07-31T10:09:04;4.50;;;1.90;;
4921;SDS011;16625;53.624;10.106;2023-07-31T10:11:38;2.63;;;2.00;;
4921;SDS011;16625;53.624;10.106;2023-07-31T10:14:09;2.40;;;1.80;;
4921;SDS011;16625;53.624;10.106;2023-07-31T10:16:38;1.87;;;1.63;;
4921;SDS011;16625;53.624;10.106;2023-07-31T10:19:05;2.50;;;1.80;;
4921;SDS011;16625;53.624;10.106;2023-07-31T10:21:33;2.37;;;1.90;;
4921;SDS011;16625;53.624;10.106;2023-07-31T10:24:02;3.00;;;1.80;;
4921;SDS011;16625;53.624;10.106;2023-07-31T10:26:30;2.07;;;1.60;;
4921;SDS011;16625;53.624;10.106;2023-07-31T10:28:59;1.80;;;1.60;;
4921;SDS011;16625;53.624;10.106;2023-07-31T10:31:26;2.20;;;1.60;;
4921;SDS011;16625;53.624;10.106;2023-07-31T10:33:54;2.10;;;1.50;;
4921;SDS011;16625;53.624;10.106;2023-07-31T10:36:22;2.60;;;1.67;;
4921;SDS011;16625;53.624;10.106;2023-07-31T10:38:49;1.80;;;1.37;;
4921;SDS011;16625;53.624;10.106;2023-07-31T10:41:16;2.03;;;1.40;;
4921;SDS011;16625;53.624;10.106;2023-07-31T10:43:45;2.13;;;1.77;;
4921;SDS011;16625;53.624;10.106;2023-07-31T10:46:14;1.50;;;1.40;;
4921;SDS011;16625;53.624;10.106;2023-07-31T10:48:41;1.43;;;1.27;;
4921;SDS011;16625;53.624;10.106;2023-07-31T10:51:09;1.33;;;1.23;;
4921;SDS011;16625;53.624;10.106;2023-07-31T10:53:37;1.80;;;1.37;;
4921;SDS011;16625;53.624;10.106;2023-07-31T10:56:05;2.70;;;1.70;;
4921;SDS011;16625;53.624;10.106;2023-07-31T10:58:33;1.87;;;1.50;;
4921;SDS011;16625;53.624;10.106;2023-07-31T11:01:01;2.00;;;1.60;;
4921;SDS011;16625;53.624;10.106;2023-07-31T11:06:13;3.83;;;1.90;;
4921;SDS011;16625;53.624;10.106;2023-07-31T11:08:41;1.70;;;1.40;;
4921;SDS011;16625;53.624;10.106;2023-07-31T11:11:10;2.30;;;1.40;;
4921;SDS011;16625;53.624;10.106;2023-07-31T11:13:41;1.50;;;1.30;;
4921;SDS011;16625;53.624;10.106;2023-07-31T11:16:09;4.83;;;1.23;;
4921;SDS011;16625;53.624;10.106;2023-07-31T11:18:38;1.30;;;1.00;;
4921;SDS011;16625;53.624;10.106;2023-07-31T11:21:08;2.43;;;1.20;;
4921;SDS011;16625;53.624;10.106;2023-07-31T11:23:38;3.20;;;1.50;;
4921;SDS011;16625;53.624;10.106;2023-07-31T11:26:04;5.73;;;1.90;;
4921;SDS011;16625;53.624;10.106;2023-07-31T11:28:33;1.60;;;1.27;;
4921;SDS011;16625;53.624;10.106;2023-07-31T11:31:00;6.80;;;1.77;;
4921;SDS011;16625;53.624;10.106;2023-07-31T11:33:28;1.70;;;1.40;;
4921;SDS011;16625;53.624;10.106;2023-07-31T11:35:55;1.80;;;1.50;;
4921;SDS011;16625;53.624;10.106;2023-07-31T11:38:24;1.83;;;1.40;;
4921;SDS011;16625;53.624;10.106;2023-07-31T11:40:52;1.30;;;1.17;;
4921;SDS011;16625;53.624;10.106;2023-07-31T11:43:19;1.70;;;1.40;;
4921;SDS011;16625;53.624;10.106;2023-07-31T11:45:47;1.70;;;1.33;;
4921;SDS011;16625;53.624;10.106;2023-07-31T11:48:19;1.60;;;1.30;;
4921;SDS011;16625;53.624;10.106;2023-07-31T11:50:47;1.60;;;1.33;;
4921;SDS011;16625;53.624;10.106;2023-07-31T11:53:15;1.53;;;1.37;;
4921;SDS011;16625;53.624;10.106;2023-07-31T11:55:46;1.93;;;1.33;;
4921;SDS011;16625;53.624;10.106;2023-07-31T11:58:14;1.80;;;1.40;;
4921;SDS011;16625;53.624;10.106;2023-07-31T12:00:42;1.50;;;1.40;;
4921;SDS011;16625;53.624;10.106;2023-07-31T12:03:09;2.17;;;1.30;;
4921;SDS011;16625;53.624;10.106;2023-07-31T12:05:37;1.80;;;1.50;;
4921;SDS011;16625;53.624;10.106;2023-07-31T12:08:08;1.43;;;1.17;;
4921;SDS011;16625;53.624;10.106;2023-07-31T12:10:36;1.30;;;1.20;;
4921;SDS011;16625;53.624;10.106;2023-07-31T12:13:08;4.90;;;1.30;;
4921;SDS011;16625;53.624;10.106;2023-07-31T12:15:39;1.50;;;1.10;;
4921;SDS011;16625;53.624;10.106;2023-07-31T12:18:08;9.03;;;1.50;;
4921;SDS011;16625;53.624;10.106;2023-07-31T12:20:39;1.93;;;1.57;;
4921;SDS011;16625;53.624;10.106;2023-07-31T12:23:12;4.00;;;1.60;;
4921;SDS011;16625;53.624;10.106;2023-07-31T12:25:40;1.50;;;1.37;;
4921;SDS011;16625;53.624;10.106;2023-07-31T12:28:09;1.33;;;1.23;;
4921;SDS011;16625;53.624;10.106;2023-07-31T12:30:38;1.50;;;1.20;;
4921;SDS011;16625;53.624;10.106;2023-07-31T12:33:06;1.40;;;1.20;;
4921;SDS011;16625;53.624;10.106;2023-07-31T12:35:38;1.60;;;1.33;;
4921;SDS011;16625;53.624;10.106;2023-07-31T12:38:07;1.33;;;1.10;;
4921;SDS011;16625;53.624;10.106;2023-07-31T12:40:36;1.50;;;1.30;;
4921;SDS011;16625;53.624;10.106;2023-07-31T12:43:04;1.40;;;1.20;;
4921;SDS011;16625;53.624;10.106;2023-07-31T12:45:32;1.40;;;1.30;;
4921;SDS011;16625;53.624;10.106;2023-07-31T12:47:59;1.80;;;1.13;;
4921;SDS011;16625;53.624;10.106;2023-07-31T12:50:27;1.83;;;1.50;;
4921;SDS011;16625;53.624;10.106;2023-07-31T12:52:54;2.30;;;1.43;;
4921;SDS011;16625;53.624;10.106;2023-07-31T12:55:21;7.10;;;1.70;;
4921;SDS011;16625;53.624;10.106;2023-07-31T12:57:48;1.80;;;1.40;;
4921;SDS011;16625;53.624;10.106;2023-07-31T13:00:15;1.83;;;1.30;;
4921;SDS011;16625;53.624;10.106;2023-07-31T13:02:43;2.00;;;1.50;;
4921;SDS011;16625;53.624;10.106;2023-07-31T13:05:10;3.67;;;1.50;;
4921;SDS011;16625;53.624;10.106;2023-07-31T13:07:38;2.07;;;1.50;;
4921;SDS011;16625;53.624;10.106;2023-07-31T13:10:05;1.57;;;1.30;;
4921;SDS011;16625;53.624;10.106;2023-07-31T13:12:33;1.83;;;1.60;;
4921;SDS011;16625;53.624;10.106;2023-07-31T13:15:00;2.60;;;1.50;;
4921;SDS011;16625;53.624;10.106;2023-07-31T13:17:27;3.20;;;1.10;;
4921;SDS011;16625;53.624;10.106;2023-07-31T13:19:55;1.73;;;1.30;;
4921;SDS011;16625;53.624;10.106;2023-07-31T13:22:22;2.00;;;1.60;;
4921;SDS011;16625;53.624;10.106;2023-07-31T13:24:49;4.73;;;1.70;;
4921;SDS011;16625;53.624;10.106;2023-07-31T13:27:16;1.73;;;1.40;;
4921;SDS011;16625;53.624;10.106;2023-07-31T13:29:44;1.73;;;1.50;;
4921;SDS011;16625;53.624;10.106;2023-07-31T13:32:11;2.33;;;1.50;;
4921;SDS011;16625;53.624;10.106;2023-07-31T13:34:38;1.57;;;1.47;;
4921;SDS011;16625;53.624;10.106;2023-07-31T13:37:06;2.53;;;1.60;;
4921;SDS011;16625;53.624;10.106;2023-07-31T13:39:34;3.00;;;1.70;;
4921;SDS011;16625;53.624;10.106;2023-07-31T13:42:01;1.43;;;1.30;;
4921;SDS011;16625;53.624;10.106;2023-07-31T13:44:31;1.90;;;1.60;;
4921;SDS011;16625;53.624;10.106;2023-07-31T13:46:58;2.40;;;1.73;;
4921;SDS011;16625;53.624;10.106;2023-07-31T13:49:25;1.77;;;1.30;;
4921;SDS011;16625;53.624;10.106;2023-07-31T13:51:52;2.53;;;1.53;;
4921;SDS011;16625;53.624;10.106;2023-07-31T13:54:20;2.07;;;1.70;;
4921;SDS011;16625;53.624;10.106;2023-07-31T13:56:48;2.47;;;1.77;;
4921;SDS011;16625;53.624;10.106;2023-07-31T13:59:15;1.50;;;1.20;;
4921;SDS011;16625;53.624;10.106;2023-07-31T14:01:42;1.80;;;1.47;;
4921;SDS011;16625;53.624;10.106;2023-07-31T14:04:09;3.27;;;1.40;;
4921;SDS011;16625;53.624;10.106;2023-07-31T14:06:36;2.30;;;1.60;;
4921;SDS011;16625;53.624;10.106;2023-07-31T14:09:02;1.50;;;1.17;;
4921;SDS011;16625;53.624;10.106;2023-07-31T14:11:31;1.90;;;1.40;;
4921;SDS011;16625;53.624;10.106;2023-07-31T14:13:58;1.77;;;1.50;;
4921;SDS011;16625;53.624;10.106;2023-07-31T14:16:26;3.93;;;1.60;;
4921;SDS011;16625;53.624;10.106;2023-07-31T14:18:53;4.93;;;2.60;;
4921;SDS011;16625;53.624;10.106;2023-07-31T14:21:20;3.97;;;1.70;;
4921;SDS011;16625;53.624;10.106;2023-07-31T14:23:47;6.63;;;2.30;;
4921;SDS011;16625;53.624;10.106;2023-07-31T14:26:14;6.33;;;2.10;;
4921;SDS011;16625;53.624;10.106;2023-07-31T14:28:43;1.70;;;1.60;;
4921;SDS011;16625;53.624;10.106;2023-07-31T14:31:10;1.70;;;1.43;;
4921;SDS011;16625;53.624;10.106;2023-07-31T14:33:37;2.03;;;1.53;;
4921;SDS011;16625;53.624;10.106;2023-07-31T14:36:04;2.90;;;1.63;;
4921;SDS011;16625;53.624;10.106;2023-07-31T14:38:31;3.40;;;1.70;;
4921;SDS011;16625;53.624;10.106;2023-07-31T14:40:58;5.80;;;1.73;;
4921;SDS011;16625;53.624;10.106;2023-07-31T14:43:25;1.83;;;1.60;;
4921;SDS011;16625;53.624;10.106;2023-07-31T14:45:54;5.17;;;1.53;;
4921;SDS011;16625;53.624;10.106;2023-07-31T14:48:24;8.43;;;1.80;;
4921;SDS011;16625;53.624;10.106;2023-07-31T14:50:51;2.33;;;1.70;;
4921;SDS011;16625;53.624;10.106;2023-07-31T14:53:18;4.10;;;2.27;;